createdAt,value
2023-04-09T00:00:35.455Z,8.13
2023-04-09T00:03:08.331Z,8.14
2023-04-09T00:05:41.409Z,8.17
2023-04-09T00:08:14.134Z,8.17
2023-04-09T00:10:46.841Z,8.19
2023-04-09T00:13:28.242Z,8.17
2023-04-09T00:16:10.324Z,8.18
2023-04-09T00:18:43.058Z,8.19
2023-04-09T00:21:16.268Z,8.22
2023-04-09T00:23:49.174Z,8.23
2023-04-09T00:26:22.341Z,8.24
2023-04-09T00:28:55.350Z,8.25
2023-04-09T00:31:29.388Z,8.28
2023-04-09T00:34:02.271Z,8.30
2023-04-09T00:36:34.934Z,8.32
2023-04-09T00:39:07.596Z,8.35
2023-04-09T00:41:40.223Z,8.40
2023-04-09T00:44:12.909Z,8.40
2023-04-09T00:46:47.175Z,8.40
2023-04-09T00:49:19.974Z,8.41
2023-04-09T00:51:52.639Z,8.40
2023-04-09T00:54:25.386Z,8.40
2023-04-09T00:56:58.488Z,8.39
2023-04-09T00:59:31.445Z,8.40
2023-04-09T01:02:05.619Z,8.41
2023-04-09T01:04:39.405Z,8.43
2023-04-09T01:07:14.325Z,8.43
2023-04-09T01:09:52.446Z,8.47
2023-04-09T01:12:31.502Z,8.48
2023-04-09T01:15:06.260Z,8.49
2023-04-09T01:17:42.945Z,8.50
2023-04-09T01:20:18.877Z,8.51
2023-04-09T01:22:58.882Z,8.52
2023-04-09T01:25:39.247Z,8.52
2023-04-09T01:28:20.091Z,8.51
2023-04-09T01:30:54.926Z,8.50
2023-04-09T01:33:28.703Z,8.49
2023-04-09T01:36:01.874Z,8.49
2023-04-09T01:38:36.371Z,8.48
2023-04-09T01:41:10.404Z,8.49
2023-04-09T01:43:45.550Z,8.47
2023-04-09T01:46:18.971Z,8.46
2023-04-09T01:48:52.514Z,8.48
2023-04-09T01:51:26.659Z,8.50
2023-04-09T01:53:59.585Z,8.50
2023-04-09T01:56:41.441Z,8.53
2023-04-09T01:59:15.681Z,8.54
2023-04-09T02:01:49.431Z,8.55
2023-04-09T02:04:24.922Z,8.53
2023-04-09T02:07:00.162Z,8.53
2023-04-09T02:09:34.324Z,8.52
2023-04-09T02:12:08.185Z,8.49
2023-04-09T02:14:42.618Z,8.46
2023-04-09T02:17:15.553Z,8.41
2023-04-09T02:19:48.879Z,8.35
2023-04-09T02:22:21.714Z,8.28
2023-04-09T02:24:54.344Z,8.20
2023-04-09T02:27:27.036Z,8.12
2023-04-09T02:30:01.256Z,8.03
2023-04-09T02:32:34.113Z,7.93
2023-04-09T02:35:07.314Z,7.82
2023-04-09T02:37:39.989Z,7.75
2023-04-09T02:40:13.177Z,7.67
2023-04-09T02:42:45.860Z,7.58
2023-04-09T02:45:19.879Z,7.51
2023-04-09T02:47:52.746Z,7.43
2023-04-09T02:50:25.945Z,7.37
2023-04-09T02:52:59.294Z,7.30
2023-04-09T02:55:32.016Z,7.25
2023-04-09T02:58:04.665Z,7.20
2023-04-09T03:00:38.723Z,7.16
2023-04-09T03:03:11.705Z,7.14
2023-04-09T03:05:44.631Z,7.10
2023-04-09T03:08:17.611Z,7.09
2023-04-09T03:10:50.265Z,7.05
2023-04-09T03:13:22.947Z,7.01
2023-04-09T03:15:57.454Z,6.99
2023-04-09T03:18:30.212Z,6.96
2023-04-09T03:21:05.868Z,6.95
2023-04-09T03:23:38.541Z,6.92
2023-04-09T03:26:11.205Z,6.90
2023-04-09T03:28:43.952Z,6.92
2023-04-09T03:31:18.014Z,6.91
2023-04-09T03:33:50.871Z,6.92
2023-04-09T03:36:23.884Z,6.93
2023-04-09T03:38:56.653Z,6.96
2023-04-09T03:41:29.332Z,7.01
2023-04-09T03:44:01.987Z,7.07
2023-04-09T03:46:36.408Z,7.16
2023-04-09T03:49:09.164Z,7.24
2023-04-09T03:51:41.756Z,7.33
2023-04-09T03:54:14.573Z,7.41
2023-04-09T03:56:47.268Z,7.50
2023-04-09T03:59:19.984Z,7.55
2023-04-09T04:01:54.086Z,7.59
2023-04-09T04:04:27.030Z,7.60
2023-04-09T04:06:59.770Z,7.65
2023-04-09T04:09:32.402Z,7.68
2023-04-09T04:12:05.300Z,7.71
2023-04-09T04:14:38.146Z,7.75
2023-04-09T04:17:12.853Z,7.80
2023-04-09T04:19:45.996Z,7.84
2023-04-09T04:22:18.675Z,7.91
2023-04-09T04:24:51.369Z,7.95
2023-04-09T04:27:23.965Z,8.05
2023-04-09T04:29:58.933Z,8.09
2023-04-09T04:32:33.118Z,8.14
2023-04-09T04:35:06.168Z,8.18
2023-04-09T04:37:38.891Z,8.20
2023-04-09T04:40:11.956Z,8.23
2023-04-09T04:42:44.577Z,8.23
2023-04-09T04:45:17.277Z,8.26
2023-04-09T04:47:51.485Z,8.27
2023-04-09T04:50:24.309Z,8.27
2023-04-09T04:52:56.945Z,8.29
2023-04-09T04:55:29.683Z,8.33
2023-04-09T04:58:02.447Z,8.36
2023-04-09T05:00:35.303Z,8.41
2023-04-09T05:03:09.355Z,8.47
2023-04-09T05:05:42.278Z,8.52
2023-04-09T05:08:14.951Z,8.58
2023-04-09T05:10:47.609Z,8.65
2023-04-09T05:13:20.408Z,8.72
2023-04-09T05:15:53.173Z,8.79
2023-04-09T05:18:27.269Z,8.86
2023-04-09T05:20:59.930Z,8.93
2023-04-09T05:23:32.658Z,9.00
2023-04-09T05:26:05.584Z,9.04
2023-04-09T05:28:38.274Z,9.09
2023-04-09T05:31:13.396Z,9.14
2023-04-09T05:33:47.716Z,9.16
2023-04-09T05:36:20.678Z,9.20
2023-04-09T05:38:53.706Z,9.21
2023-04-09T05:41:26.584Z,9.24
2023-04-09T05:44:00.829Z,9.28
2023-04-09T05:46:33.764Z,9.27
2023-04-09T05:49:07.927Z,9.30
2023-04-09T05:51:40.936Z,9.28
2023-04-09T05:54:13.571Z,9.31
2023-04-09T05:56:46.427Z,9.31
2023-04-09T05:59:19.552Z,9.29
2023-04-09T06:01:52.276Z,9.30
2023-04-09T06:04:26.469Z,9.33
2023-04-09T06:07:00.620Z,9.33
2023-04-09T06:09:33.324Z,9.36
2023-04-09T06:12:06.310Z,9.38
2023-04-09T06:14:39.006Z,9.42
2023-04-09T06:17:11.713Z,9.46
2023-04-09T06:19:45.912Z,9.50
2023-04-09T06:22:18.578Z,9.52
2023-04-09T06:24:51.265Z,9.54
2023-04-09T06:27:24.012Z,9.54
2023-04-09T06:29:56.705Z,9.53
2023-04-09T06:32:29.774Z,9.50
2023-04-09T06:35:05.013Z,9.49
2023-04-09T06:37:37.750Z,9.50
2023-04-09T06:40:10.852Z,9.49
2023-04-09T06:42:43.611Z,9.51
2023-04-09T06:45:16.298Z,9.51
2023-04-09T06:47:49.369Z,9.55
2023-04-09T06:50:23.881Z,9.61
2023-04-09T06:52:56.685Z,9.69
2023-04-09T06:55:29.434Z,9.76
2023-04-09T06:58:02.817Z,9.82
2023-04-09T07:00:35.496Z,9.91
2023-04-09T07:03:09.431Z,9.96
2023-04-09T07:05:43.825Z,10.05
2023-04-09T07:08:16.734Z,10.14
2023-04-09T07:10:49.401Z,10.27
2023-04-09T07:13:22.152Z,10.39
2023-04-09T07:15:54.873Z,10.50
2023-04-09T07:18:27.926Z,10.63
2023-04-09T07:21:02.782Z,10.74
2023-04-09T07:23:37.434Z,10.86
2023-04-09T07:26:11.510Z,10.98
2023-04-09T07:28:44.357Z,11.12
2023-04-09T07:31:17.038Z,11.24
2023-04-09T07:33:49.678Z,11.37
2023-04-09T07:36:24.382Z,11.50
2023-04-09T07:38:57.142Z,11.59
2023-04-09T07:41:29.919Z,11.69
2023-04-09T07:44:03.704Z,11.77
2023-04-09T07:46:36.375Z,11.86
2023-04-09T07:49:09.035Z,11.95
2023-04-09T07:51:43.129Z,12.02
2023-04-09T07:54:15.936Z,12.11
2023-04-09T07:56:48.761Z,12.22
2023-04-09T07:59:21.446Z,12.32
2023-04-09T08:01:54.447Z,12.40
2023-04-09T08:04:27.511Z,12.48
2023-04-09T08:07:01.745Z,12.57
2023-04-09T08:09:34.477Z,12.64
2023-04-09T08:12:07.149Z,12.66
2023-04-09T08:14:39.780Z,12.67
2023-04-09T08:17:12.433Z,12.69
2023-04-09T08:19:45.162Z,12.69
2023-04-09T08:22:19.448Z,12.67
2023-04-09T08:24:53.332Z,12.69
2023-04-09T08:27:26.381Z,12.69
2023-04-09T08:29:59.066Z,12.69
2023-04-09T08:32:31.858Z,12.68
2023-04-09T08:35:04.696Z,12.68
2023-04-09T08:37:39.656Z,12.68
2023-04-09T08:40:12.823Z,12.70
2023-04-09T08:42:46.539Z,12.73
2023-04-09T08:45:19.412Z,12.77
2023-04-09T08:47:52.930Z,12.81
2023-04-09T08:50:25.794Z,12.85
2023-04-09T08:53:00.439Z,12.90
2023-04-09T08:55:34.786Z,12.99
2023-04-09T08:58:09.526Z,13.04
2023-04-09T09:00:42.190Z,13.13
2023-04-09T09:03:14.916Z,13.21
2023-04-09T09:05:47.715Z,13.31
2023-04-09T09:08:26.268Z,13.39
2023-04-09T09:10:58.958Z,13.52
2023-04-09T09:13:31.574Z,13.63
2023-04-09T09:16:13.619Z,13.73
2023-04-09T09:18:46.363Z,13.81
2023-04-09T09:21:19.614Z,13.85
2023-04-09T09:23:53.816Z,13.83
2023-04-09T09:26:27.490Z,13.79
2023-04-09T09:29:01.705Z,13.75
2023-04-09T09:31:47.280Z,13.67
2023-04-09T09:34:20.563Z,13.60
2023-04-09T09:36:53.315Z,13.57
2023-04-09T09:39:43.620Z,13.53
2023-04-09T09:42:16.406Z,13.51
2023-04-09T09:44:49.258Z,13.51
2023-04-09T09:47:22.785Z,13.52
2023-04-09T09:49:55.897Z,13.53
2023-04-09T09:52:28.628Z,13.54
2023-04-09T09:55:05.985Z,13.59
2023-04-09T09:57:40.779Z,13.59
2023-04-09T10:00:14.341Z,13.56
2023-04-09T10:02:50.174Z,13.54
2023-04-09T10:05:26.966Z,13.54
2023-04-09T10:08:00.856Z,13.52
2023-04-09T10:10:35.211Z,13.55
2023-04-09T10:13:08.347Z,13.60
2023-04-09T10:15:43.280Z,13.64
2023-04-09T10:18:17.715Z,13.72
2023-04-09T10:20:52.139Z,13.82
2023-04-09T10:23:32.348Z,13.94
2023-04-09T10:26:06.520Z,14.06
2023-04-09T10:28:39.511Z,14.20
2023-04-09T10:31:12.413Z,14.29
2023-04-09T10:33:46.055Z,14.38
2023-04-09T10:36:22.509Z,14.45
2023-04-09T10:38:55.265Z,14.54
2023-04-09T10:41:30.850Z,14.56
2023-04-09T10:44:07.300Z,14.59
2023-04-09T10:46:43.070Z,14.61
2023-04-09T10:49:17.741Z,14.63
2023-04-09T10:51:53.130Z,14.68
2023-04-09T10:54:46.133Z,14.72
2023-04-09T10:57:22.023Z,14.77
2023-04-09T10:59:55.206Z,14.82
2023-04-09T11:02:46.817Z,14.88
2023-04-09T11:05:20.960Z,14.92
2023-04-09T11:07:54.881Z,14.96
2023-04-09T11:10:28.490Z,15.00
2023-04-09T11:13:03.004Z,15.02
2023-04-09T11:15:36.459Z,15.06
2023-04-09T11:18:10.053Z,15.10
2023-04-09T11:20:42.848Z,15.16
2023-04-09T11:23:16.539Z,15.23
2023-04-09T11:25:50.007Z,15.29
2023-04-09T11:28:24.331Z,15.33
2023-04-09T11:30:57.067Z,15.34
2023-04-09T11:33:33.237Z,15.33
2023-04-09T11:36:06.869Z,15.34
2023-04-09T11:38:39.720Z,15.30
2023-04-09T11:41:13.655Z,15.28
2023-04-09T11:43:47.918Z,15.26
2023-04-09T11:46:26.151Z,15.26
2023-04-09T11:48:58.882Z,15.22
2023-04-09T11:51:32.768Z,15.19
2023-04-09T11:54:06.508Z,15.18
2023-04-09T11:56:39.242Z,15.12
2023-04-09T11:59:15.450Z,15.10
2023-04-09T12:01:50.955Z,15.07
2023-04-09T12:04:23.706Z,15.05
2023-04-09T12:06:59.227Z,15.00
2023-04-09T12:09:32.007Z,15.01
2023-04-09T12:12:09.070Z,14.99
2023-04-09T12:14:46.785Z,14.99
2023-04-09T12:17:21.867Z,15.00
2023-04-09T12:19:54.704Z,15.03
2023-04-09T12:22:27.851Z,15.06
2023-04-09T12:25:00.556Z,15.14
2023-04-09T12:27:34.002Z,15.18
2023-04-09T12:30:11.083Z,15.25
2023-04-09T12:32:44.868Z,15.32
2023-04-09T12:35:17.605Z,15.41
2023-04-09T12:37:50.857Z,15.53
2023-04-09T12:40:23.845Z,15.65
2023-04-09T12:42:56.614Z,15.79
2023-04-09T12:45:30.979Z,15.90
2023-04-09T12:48:03.751Z,16.03
2023-04-09T12:50:36.555Z,16.13
2023-04-09T12:53:09.232Z,16.22
2023-04-09T12:55:42.953Z,16.25
2023-04-09T12:58:15.784Z,16.29
2023-04-09T13:00:49.828Z,16.30
2023-04-09T13:03:23.017Z,16.30
2023-04-09T13:05:56.037Z,16.28
2023-04-09T13:08:28.835Z,16.27
2023-04-09T13:11:01.421Z,16.23
2023-04-09T13:13:34.755Z,16.19
2023-04-09T13:16:09.286Z,16.15
2023-04-09T13:18:41.912Z,16.11
2023-04-09T13:21:18.669Z,16.08
2023-04-09T13:23:51.494Z,16.04
2023-04-09T13:26:24.208Z,16.03
2023-04-09T13:28:56.869Z,16.00
2023-04-09T13:31:31.159Z,15.96
2023-04-09T13:34:03.964Z,15.93
2023-04-09T13:36:36.653Z,15.89
2023-04-09T13:39:09.323Z,15.88
2023-04-09T13:41:41.969Z,15.83
2023-04-09T13:44:14.699Z,15.78
2023-04-09T13:46:48.754Z,15.75
2023-04-09T13:49:21.444Z,15.73
2023-04-09T13:51:55.719Z,15.69
2023-04-09T13:54:28.409Z,15.65
2023-04-09T13:57:01.080Z,15.64
2023-04-09T13:59:33.815Z,15.59
2023-04-09T14:02:08.126Z,15.58
2023-04-09T14:04:40.931Z,15.55
2023-04-09T14:07:13.652Z,15.54
2023-04-09T14:09:46.699Z,15.54
2023-04-09T14:12:19.973Z,15.52
2023-04-09T14:14:52.995Z,15.51
2023-04-09T14:17:27.638Z,15.51
2023-04-09T14:20:00.945Z,15.49
2023-04-09T14:22:33.641Z,15.48
2023-04-09T14:25:07.170Z,15.48
2023-04-09T14:27:39.803Z,15.48
2023-04-09T14:30:13.640Z,15.47
2023-04-09T14:32:47.742Z,15.44
2023-04-09T14:35:20.446Z,15.45
2023-04-09T14:37:53.046Z,15.41
2023-04-09T14:40:25.720Z,15.40
2023-04-09T14:42:58.405Z,15.38
2023-04-09T14:45:31.460Z,15.37
2023-04-09T14:48:05.924Z,15.37
2023-04-09T14:50:38.645Z,15.35
2023-04-09T14:53:12.441Z,15.36
2023-04-09T14:55:45.403Z,15.34
2023-04-09T14:58:18.092Z,15.32
2023-04-09T15:00:50.894Z,15.31
2023-04-09T15:03:25.182Z,15.31
2023-04-09T15:05:58.152Z,15.32
2023-04-09T15:08:30.983Z,15.31
2023-04-09T15:11:03.820Z,15.29
2023-04-09T15:13:36.433Z,15.28
2023-04-09T15:16:09.693Z,15.28
2023-04-09T15:18:43.765Z,15.25
2023-04-09T15:21:16.605Z,15.25
2023-04-09T15:23:51.113Z,15.23
2023-04-09T15:26:23.821Z,15.21
2023-04-09T15:29:02.306Z,15.21
2023-04-09T15:31:35.450Z,15.19
2023-04-09T15:34:09.608Z,15.18
2023-04-09T15:36:42.317Z,15.15
2023-04-09T15:39:14.985Z,15.16
2023-04-09T15:41:47.641Z,15.15
2023-04-09T15:44:20.265Z,15.14
2023-04-09T15:46:52.913Z,15.12
2023-04-09T15:49:26.970Z,15.08
2023-04-09T15:51:59.708Z,15.06
2023-04-09T15:54:32.406Z,15.06
2023-04-09T15:57:05.373Z,15.05
2023-04-09T15:59:38.015Z,15.05
2023-04-09T16:02:10.981Z,15.03
2023-04-09T16:04:45.376Z,15.02
2023-04-09T16:07:18.183Z,15.00
2023-04-09T16:09:50.946Z,15.00
2023-04-09T16:12:24.911Z,14.99
2023-04-09T16:14:57.644Z,14.99
2023-04-09T16:17:30.887Z,14.94
2023-04-09T16:20:05.586Z,14.92
2023-04-09T16:22:38.438Z,14.92
2023-04-09T16:25:11.208Z,14.88
2023-04-09T16:27:43.890Z,14.86
2023-04-09T16:30:16.773Z,14.84
2023-04-09T16:32:49.645Z,14.81
2023-04-09T16:35:23.886Z,14.79
2023-04-09T16:37:56.836Z,14.77
2023-04-09T16:40:29.496Z,14.72
2023-04-09T16:43:02.379Z,14.70
2023-04-09T16:45:35.105Z,14.68
2023-04-09T16:48:12.330Z,14.66
2023-04-09T16:50:46.875Z,14.62
2023-04-09T16:55:52.744Z,14.57
2023-04-09T16:58:25.690Z,14.54
2023-04-09T17:00:59.278Z,14.51
2023-04-09T17:03:32.096Z,14.47
2023-04-09T17:06:06.738Z,14.45
2023-04-09T17:08:39.398Z,14.43
2023-04-09T17:11:15.531Z,14.39
2023-04-09T17:13:48.332Z,14.33
2023-04-09T17:16:21.385Z,14.30
2023-04-09T17:18:54.222Z,14.28
2023-04-09T17:21:28.452Z,14.24
2023-04-09T17:24:02.832Z,14.21
2023-04-09T17:26:35.522Z,14.17
2023-04-09T17:29:08.185Z,14.11
2023-04-09T17:31:41.151Z,14.08
2023-04-09T17:34:16.283Z,14.03
2023-04-09T17:36:56.420Z,13.98
2023-04-09T17:39:29.583Z,13.93
2023-04-09T17:42:03.425Z,13.84
2023-04-09T17:44:36.415Z,13.77
2023-04-09T17:47:09.086Z,13.70
2023-04-09T17:49:41.973Z,13.62
2023-04-09T17:52:16.431Z,13.53
2023-04-09T17:54:50.979Z,13.44
2023-04-09T17:57:23.589Z,13.35
2023-04-09T17:59:56.262Z,13.27
2023-04-09T18:02:29.180Z,13.19
2023-04-09T18:05:02.645Z,13.08
2023-04-09T18:07:37.334Z,13.01
2023-04-09T18:10:10.846Z,12.93
2023-04-09T18:12:43.502Z,12.83
2023-04-09T18:15:16.755Z,12.74
2023-04-09T18:17:49.591Z,12.65
2023-04-09T18:20:22.461Z,12.56
2023-04-09T18:22:57.063Z,12.45
2023-04-09T18:25:29.951Z,12.36
2023-04-09T18:28:02.615Z,12.26
2023-04-09T18:30:36.324Z,12.13
2023-04-09T18:33:09.061Z,12.02
2023-04-09T18:35:41.785Z,11.92
2023-04-09T18:38:15.881Z,11.82
2023-04-09T18:40:48.555Z,11.71
2023-04-09T18:43:21.262Z,11.62
2023-04-09T18:45:53.950Z,11.52
2023-04-09T18:48:26.924Z,11.42
2023-04-09T18:51:01.825Z,11.33
2023-04-09T18:53:35.973Z,11.21
2023-04-09T18:56:08.665Z,11.13
2023-04-09T18:58:41.270Z,11.03
2023-04-09T19:01:14.032Z,10.92
2023-04-09T19:03:47.756Z,10.82
2023-04-09T19:06:20.994Z,10.73
2023-04-09T19:08:58.248Z,10.62
2023-04-09T19:11:31.060Z,10.54
2023-04-09T19:14:04.140Z,10.45
2023-04-09T19:16:37.177Z,10.38
2023-04-09T19:19:09.963Z,10.30
2023-04-09T19:21:42.613Z,10.20
2023-04-09T19:24:16.753Z,10.13
2023-04-09T19:26:50.909Z,10.04
2023-04-09T19:29:23.612Z,9.98
2023-04-09T19:31:57.289Z,9.90
2023-04-09T19:34:30.059Z,9.81
2023-04-09T19:37:03.013Z,9.74
2023-04-09T19:39:37.013Z,9.66
2023-04-09T19:42:09.760Z,9.59
2023-04-09T19:44:42.465Z,9.53
2023-04-09T19:47:15.178Z,9.45
2023-04-09T19:49:48.157Z,9.39
2023-04-09T19:52:20.943Z,9.33
2023-04-09T19:54:58.239Z,9.28
2023-04-09T19:57:31.865Z,9.22
2023-04-09T20:00:05.625Z,9.16
2023-04-09T20:02:39.546Z,9.09
2023-04-09T20:05:12.904Z,9.04
2023-04-09T20:07:45.642Z,9.00
2023-04-09T20:10:19.855Z,8.95
2023-04-09T20:12:53.133Z,8.90
2023-04-09T20:15:26.314Z,8.84
2023-04-09T20:17:59.059Z,8.79
2023-04-09T20:20:31.947Z,8.75
2023-04-09T20:23:04.958Z,8.69
2023-04-09T20:25:39.058Z,8.66
2023-04-09T20:28:11.695Z,8.60
2023-04-09T20:30:44.706Z,8.55
2023-04-09T20:33:17.431Z,8.49
2023-04-09T20:35:50.489Z,8.43
2023-04-09T20:38:23.308Z,8.39
2023-04-09T20:40:57.601Z,8.34
2023-04-09T20:43:30.615Z,8.28
2023-04-09T20:46:03.288Z,8.22
2023-04-09T20:48:35.958Z,8.17
2023-04-09T20:51:09.730Z,8.14
2023-04-09T20:53:42.822Z,8.09
2023-04-09T20:56:17.524Z,8.05
2023-04-09T20:58:50.270Z,8.02
2023-04-09T21:01:23.353Z,7.97
2023-04-09T21:03:57.113Z,7.94
2023-04-09T21:06:29.863Z,7.90
2023-04-09T21:09:04.808Z,7.86
2023-04-09T21:11:38.890Z,7.84
2023-04-09T21:14:13.582Z,7.82
2023-04-09T21:16:46.703Z,7.78
2023-04-09T21:19:19.595Z,7.75
2023-04-09T21:21:52.368Z,7.71
2023-04-09T21:24:25.086Z,7.68
2023-04-09T21:26:59.094Z,7.65
2023-04-09T21:29:31.764Z,7.59
2023-04-09T21:32:04.583Z,7.55
2023-04-09T21:34:39.561Z,7.51
2023-04-09T21:37:12.244Z,7.47
2023-04-09T21:39:44.935Z,7.44
2023-04-09T21:42:19.007Z,7.40
2023-04-09T21:44:51.638Z,7.36
2023-04-09T21:47:24.751Z,7.34
2023-04-09T21:49:57.692Z,7.29
2023-04-09T21:52:30.355Z,7.25
2023-04-09T21:55:03.678Z,7.21
2023-04-09T21:57:37.737Z,7.20
2023-04-09T22:00:11.435Z,7.14
2023-04-09T22:02:44.188Z,7.11
2023-04-09T22:05:17.088Z,7.09
2023-04-09T22:07:49.724Z,7.05
2023-04-09T22:10:22.782Z,7.03
2023-04-09T22:12:56.980Z,7.00
2023-04-09T22:15:29.730Z,6.97
2023-04-09T22:18:02.793Z,6.91
2023-04-09T22:20:36.886Z,6.90
2023-04-09T22:23:09.776Z,6.87
2023-04-09T22:25:42.437Z,6.83
2023-04-09T22:28:16.446Z,6.78
2023-04-09T22:30:49.378Z,6.75
2023-04-09T22:33:22.091Z,6.73
2023-04-09T22:35:54.948Z,6.68
2023-04-09T22:38:27.709Z,6.66
2023-04-09T22:41:01.580Z,6.64
2023-04-09T22:43:36.252Z,6.58
2023-04-09T22:46:09.159Z,6.56
2023-04-09T22:48:45.020Z,6.53
2023-04-09T22:51:17.910Z,6.50
2023-04-09T22:53:50.551Z,6.47
2023-04-09T22:56:23.483Z,6.42
2023-04-09T22:58:57.565Z,6.42
2023-04-09T23:01:31.629Z,6.38
2023-04-09T23:04:04.393Z,6.34
2023-04-09T23:06:37.790Z,6.32
2023-04-09T23:09:10.444Z,6.30
2023-04-09T23:11:43.151Z,6.26
2023-04-09T23:14:17.393Z,6.22
2023-04-09T23:16:50.055Z,6.18
2023-04-09T23:19:22.693Z,6.15
2023-04-09T23:21:55.841Z,6.13
2023-04-09T23:24:28.474Z,6.10
2023-04-09T23:27:01.193Z,6.08
2023-04-09T23:29:35.313Z,6.04
2023-04-09T23:32:08.038Z,6.00
2023-04-09T23:34:40.636Z,5.99
2023-04-09T23:37:13.454Z,5.96
2023-04-09T23:39:47.409Z,5.93
2023-04-09T23:42:20.131Z,5.91
2023-04-09T23:44:54.263Z,5.88
2023-04-09T23:47:27.429Z,5.85
2023-04-09T23:50:00.321Z,5.84
2023-04-09T23:52:33.789Z,5.83
2023-04-09T23:55:08.937Z,5.81
2023-04-09T23:57:42.613Z,5.79
